sensor_id;sensor_type;location;lat;lon;timestamp;P1;durP1;ratioP1;P2;durP2;ratioP2
60430;SDS011;46285;45.122;20.726;2023-12-20T00:02:57;35.17;;;21.70;;
60430;SDS011;46285;45.122;20.726;2023-12-20T00:12:59;29.65;;;19.23;;
60430;SDS011;46285;45.122;20.726;2023-12-20T00:23:01;29.10;;;19.98;;
60430;SDS011;46285;45.122;20.726;2023-12-20T00:33:04;39.88;;;19.85;;
60430;SDS011;46285;45.122;20.726;2023-12-20T00:43:05;26.85;;;18.45;;
60430;SDS011;46285;45.122;20.726;2023-12-20T00:53:07;24.15;;;16.70;;
60430;SDS011;46285;45.122;20.726;2023-12-20T01:03:09;27.88;;;18.25;;
60430;SDS011;46285;45.122;20.726;2023-12-20T01:13:11;29.63;;;18.08;;
60430;SDS011;46285;45.122;20.726;2023-12-20T01:23:13;28.65;;;16.23;;
60430;SDS011;46285;45.122;20.726;2023-12-20T01:33:15;24.23;;;15.48;;
60430;SDS011;46285;45.122;20.726;2023-12-20T01:43:18;26.83;;;17.38;;
60430;SDS011;46285;45.122;20.726;2023-12-20T01:53:20;25.42;;;17.33;;
60430;SDS011;46285;45.122;20.726;2023-12-20T02:03:23;27.48;;;18.58;;
60430;SDS011;46285;45.122;20.726;2023-12-20T02:13:25;26.55;;;18.70;;
60430;SDS011;46285;45.122;20.726;2023-12-20T02:23:27;24.70;;;18.23;;
60430;SDS011;46285;45.122;20.726;2023-12-20T02:33:29;28.00;;;17.95;;
60430;SDS011;46285;45.122;20.726;2023-12-20T02:43:31;29.45;;;20.42;;
60430;SDS011;46285;45.122;20.726;2023-12-20T02:53:33;28.17;;;18.80;;
60430;SDS011;46285;45.122;20.726;2023-12-20T03:03:35;23.05;;;16.35;;
60430;SDS011;46285;45.122;20.726;2023-12-20T03:13:37;29.67;;;20.15;;
60430;SDS011;46285;45.122;20.726;2023-12-20T03:23:39;30.05;;;20.30;;
60430;SDS011;46285;45.122;20.726;2023-12-20T03:33:41;29.27;;;21.00;;
60430;SDS011;46285;45.122;20.726;2023-12-20T03:43:43;36.45;;;22.38;;
60430;SDS011;46285;45.122;20.726;2023-12-20T03:53:45;30.75;;;19.23;;
60430;SDS011;46285;45.122;20.726;2023-12-20T04:03:46;33.95;;;21.38;;
60430;SDS011;46285;45.122;20.726;2023-12-20T04:13:48;32.47;;;21.17;;
60430;SDS011;46285;45.122;20.726;2023-12-20T04:23:50;32.72;;;22.67;;
60430;SDS011;46285;45.122;20.726;2023-12-20T04:33:52;30.55;;;20.20;;
60430;SDS011;46285;45.122;20.726;2023-12-20T04:43:54;28.13;;;17.90;;
60430;SDS011;46285;45.122;20.726;2023-12-20T04:53:56;33.63;;;19.38;;
60430;SDS011;46285;45.122;20.726;2023-12-20T05:03:58;36.22;;;21.83;;
60430;SDS011;46285;45.122;20.726;2023-12-20T05:14:00;29.63;;;18.70;;
60430;SDS011;46285;45.122;20.726;2023-12-20T05:24:02;30.02;;;19.70;;
60430;SDS011;46285;45.122;20.726;2023-12-20T05:34:04;26.02;;;18.80;;
60430;SDS011;46285;45.122;20.726;2023-12-20T05:44:06;36.92;;;25.33;;
60430;SDS011;46285;45.122;20.726;2023-12-20T05:54:09;51.42;;;34.33;;
60430;SDS011;46285;45.122;20.726;2023-12-20T06:04:11;42.65;;;28.50;;
60430;SDS011;46285;45.122;20.726;2023-12-20T06:14:13;33.40;;;25.10;;
60430;SDS011;46285;45.122;20.726;2023-12-20T06:24:15;27.23;;;20.90;;
60430;SDS011;46285;45.122;20.726;2023-12-20T06:34:17;28.00;;;20.90;;
60430;SDS011;46285;45.122;20.726;2023-12-20T06:44:19;30.58;;;19.85;;
60430;SDS011;46285;45.122;20.726;2023-12-20T06:54:21;36.80;;;25.75;;
60430;SDS011;46285;45.122;20.726;2023-12-20T07:04:22;33.33;;;23.27;;
60430;SDS011;46285;45.122;20.726;2023-12-20T07:14:24;39.20;;;24.05;;
60430;SDS011;46285;45.122;20.726;2023-12-20T07:24:27;34.92;;;24.40;;
60430;SDS011;46285;45.122;20.726;2023-12-20T07:34:28;36.38;;;24.13;;
60430;SDS011;46285;45.122;20.726;2023-12-20T07:44:31;78.80;;;49.13;;
60430;SDS011;46285;45.122;20.726;2023-12-20T07:54:32;45.22;;;29.20;;
60430;SDS011;46285;45.122;20.726;2023-12-20T08:04:34;41.60;;;30.83;;
60430;SDS011;46285;45.122;20.726;2023-12-20T08:14:36;68.45;;;40.65;;
60430;SDS011;46285;45.122;20.726;2023-12-20T08:24:39;68.30;;;43.03;;
60430;SDS011;46285;45.122;20.726;2023-12-20T13:22:22;102.55;;;77.00;;
60430;SDS011;46285;45.122;20.726;2023-12-20T13:32:25;131.98;;;99.85;;
60430;SDS011;46285;45.122;20.726;2023-12-20T13:42:27;288.20;;;196.52;;
60430;SDS011;46285;45.122;20.726;2023-12-20T13:52:30;138.60;;;95.22;;
60430;SDS011;46285;45.122;20.726;2023-12-20T14:02:33;220.85;;;137.75;;
60430;SDS011;46285;45.122;20.726;2023-12-20T14:12:36;252.68;;;144.77;;
60430;SDS011;46285;45.122;20.726;2023-12-20T14:22:38;99.78;;;65.90;;
60430;SDS011;46285;45.122;20.726;2023-12-20T14:32:45;114.13;;;80.82;;
60430;SDS011;46285;45.122;20.726;2023-12-20T14:42:49;115.88;;;81.10;;
60430;SDS011;46285;45.122;20.726;2023-12-20T14:52:53;136.57;;;89.13;;
60430;SDS011;46285;45.122;20.726;2023-12-20T15:02:56;261.98;;;170.90;;
60430;SDS011;46285;45.122;20.726;2023-12-20T15:12:58;153.60;;;106.50;;
60430;SDS011;46285;45.122;20.726;2023-12-20T15:23:01;164.85;;;112.25;;
60430;SDS011;46285;45.122;20.726;2023-12-20T15:33:15;228.75;;;167.27;;
60430;SDS011;46285;45.122;20.726;2023-12-20T15:43:19;98.47;;;75.25;;
60430;SDS011;46285;45.122;20.726;2023-12-20T15:53:22;117.95;;;77.25;;
60430;SDS011;46285;45.122;20.726;2023-12-20T16:03:26;407.15;;;165.10;;
60430;SDS011;46285;45.122;20.726;2023-12-20T16:13:29;168.43;;;87.30;;
60430;SDS011;46285;45.122;20.726;2023-12-20T16:23:31;169.75;;;86.35;;
60430;SDS011;46285;45.122;20.726;2023-12-20T16:33:34;171.02;;;101.38;;
60430;SDS011;46285;45.122;20.726;2023-12-20T16:43:36;238.73;;;128.10;;
60430;SDS011;46285;45.122;20.726;2023-12-20T16:53:39;110.97;;;70.47;;
60430;SDS011;46285;45.122;20.726;2023-12-20T17:03:42;151.82;;;77.93;;
60430;SDS011;46285;45.122;20.726;2023-12-20T17:13:44;113.60;;;64.90;;
60430;SDS011;46285;45.122;20.726;2023-12-20T17:23:47;172.18;;;100.50;;
60430;SDS011;46285;45.122;20.726;2023-12-20T17:33:49;154.70;;;82.03;;
60430;SDS011;46285;45.122;20.726;2023-12-20T17:43:51;189.20;;;84.28;;
60430;SDS011;46285;45.122;20.726;2023-12-20T17:53:53;147.32;;;78.50;;
60430;SDS011;46285;45.122;20.726;2023-12-20T18:03:57;129.02;;;68.82;;
60430;SDS011;46285;45.122;20.726;2023-12-20T18:14:00;281.73;;;153.70;;
60430;SDS011;46285;45.122;20.726;2023-12-20T18:24:02;178.50;;;100.28;;
60430;SDS011;46285;45.122;20.726;2023-12-20T18:34:04;136.48;;;83.32;;
60430;SDS011;46285;45.122;20.726;2023-12-20T18:44:06;123.57;;;67.90;;
60430;SDS011;46285;45.122;20.726;2023-12-20T19:04:39;149.52;;;86.82;;
60430;SDS011;46285;45.122;20.726;2023-12-20T19:14:43;174.40;;;95.27;;
60430;SDS011;46285;45.122;20.726;2023-12-20T19:24:45;187.60;;;108.75;;
60430;SDS011;46285;45.122;20.726;2023-12-20T19:34:48;207.50;;;120.68;;
60430;SDS011;46285;45.122;20.726;2023-12-20T19:44:51;448.20;;;254.07;;
60430;SDS011;46285;45.122;20.726;2023-12-20T19:54:54;493.88;;;249.15;;
60430;SDS011;46285;45.122;20.726;2023-12-20T20:04:56;491.10;;;244.00;;
60430;SDS011;46285;45.122;20.726;2023-12-20T20:14:58;364.52;;;189.70;;
60430;SDS011;46285;45.122;20.726;2023-12-20T20:25:00;398.25;;;154.48;;
60430;SDS011;46285;45.122;20.726;2023-12-20T20:35:04;223.38;;;110.78;;
60430;SDS011;46285;45.122;20.726;2023-12-20T20:45:08;132.48;;;72.88;;
60430;SDS011;46285;45.122;20.726;2023-12-20T20:55:10;135.82;;;72.47;;
60430;SDS011;46285;45.122;20.726;2023-12-20T21:05:13;111.72;;;63.75;;
60430;SDS011;46285;45.122;20.726;2023-12-20T21:15:17;132.68;;;77.50;;
60430;SDS011;46285;45.122;20.726;2023-12-20T21:25:19;128.77;;;73.75;;
60430;SDS011;46285;45.122;20.726;2023-12-20T21:35:23;179.98;;;94.53;;
60430;SDS011;46285;45.122;20.726;2023-12-20T21:45:25;210.88;;;119.30;;
60430;SDS011;46285;45.122;20.726;2023-12-20T21:55:28;308.95;;;152.50;;
60430;SDS011;46285;45.122;20.726;2023-12-20T22:05:30;216.93;;;112.68;;
60430;SDS011;46285;45.122;20.726;2023-12-20T22:15:32;178.07;;;108.88;;
60430;SDS011;46285;45.122;20.726;2023-12-20T22:25:35;133.38;;;83.50;;
60430;SDS011;46285;45.122;20.726;2023-12-20T22:35:38;127.45;;;78.45;;
60430;SDS011;46285;45.122;20.726;2023-12-20T22:45:40;133.23;;;78.82;;
60430;SDS011;46285;45.122;20.726;2023-12-20T22:55:43;116.10;;;71.50;;
60430;SDS011;46285;45.122;20.726;2023-12-20T23:05:50;133.75;;;77.80;;
60430;SDS011;46285;45.122;20.726;2023-12-20T23:15:52;121.95;;;76.43;;
60430;SDS011;46285;45.122;20.726;2023-12-20T23:25:54;119.32;;;75.72;;
60430;SDS011;46285;45.122;20.726;2023-12-20T23:35:56;112.32;;;68.32;;
60430;SDS011;46285;45.122;20.726;2023-12-20T23:45:59;106.97;;;64.68;;
60430;SDS011;46285;45.122;20.726;2023-12-20T23:56:01;94.88;;;58.47;;
